^^
Saratoga-Weather Station Historical Data
Daily Summary for January 26, 2021 Units:  Metric    English   Both
Daily Weekly Monthly Yearly Custom
  High: Low: Average:
Temperature: 24.2 °C 11.6 °C 15.9 °C
Dew Point: 15 °C 10 °C 11.9 °C
Humidity: 94% 50% 79%
Wind Speed: 8km/h 0km/h 1.1km/h
Wind Gust: 12.9km/h - -
Wind- - East
Pressure: 1018.0 hPa 1016.9 hPa -
Precipitation: 0.0 mm    
Historical Graphs
 
 
Tabular Data for January 26, 2021
Time Temperature Dew Point Pressure Wind Wind Speed Wind Gust Humidity Rainfall Rate (Hourly) solar
00:02 14.2 °C 10.8 °C 1017.6 hPa Calm     80% 0.0 mm 0 W/m2
00:07 14.2 °C 10.8 °C 1017.6 hPa Calm     80% 0.0 mm 0 W/m2
00:12 14.1 °C 10.7 °C 1017.6 hPa Calm     80% 0.0 mm 0 W/m2
00:17 14.1 °C 10.7 °C 1017.6 hPa Calm     80% 0.0 mm 0 W/m2
00:22 14.1 °C 10.7 °C 1017.6 hPa Calm     80% 0.0 mm 0 W/m2
00:27 13.9 °C 10.7 °C 1017.6 hPa Calm     81% 0.0 mm 0 W/m2
00:32 13.9 °C 10.7 °C 1017.6 hPa Calm     81% 0.0 mm 0 W/m2
00:37 13.8 °C 10.8 °C 1017.6 hPa Calm     82% 0.0 mm 0 W/m2
00:42 13.8 °C 10.8 °C 1017.6 hPa Calm     82% 0.0 mm 0 W/m2
00:47 13.7 °C 10.7 °C 1017.6 hPa Calm     82% 0.0 mm 0 W/m2
00:52 13.7 °C 10.7 °C 1017.6 hPa Calm     82% 0.0 mm 0 W/m2
00:57 13.6 °C 10.8 °C 1017.6 hPa Calm     83% 0.0 mm 0 W/m2
01:02 13.6 °C 10.8 °C 1017.6 hPa Calm     83% 0.0 mm 0 W/m2
01:07 13.5 °C 10.7 °C 1017.6 hPa Calm     83% 0.0 mm 0 W/m2
01:12 13.5 °C 10.7 °C 1017.6 hPa Calm     83% 0.0 mm 0 W/m2
01:17 13.4 °C 10.6 °C 1017.6 hPa Calm     83% 0.0 mm 0 W/m2
01:22 13.4 °C 10.8 °C 1017.6 hPa Calm     84% 0.0 mm 0 W/m2
01:27 13.4 °C 10.8 °C 1017.6 hPa Calm     84% 0.0 mm 0 W/m2
01:32 13.4 °C 10.8 °C 1017.6 hPa Calm     84% 0.0 mm 0 W/m2
01:37 13.4 °C 10.6 °C 1017.6 hPa Calm     83% 0.0 mm 0 W/m2
01:42 13.4 °C 10.8 °C 1017.6 hPa Calm     84% 0.0 mm 0 W/m2
01:47 13.4 °C 10.8 °C 1017.6 hPa Calm     84% 0.0 mm 0 W/m2
01:52 13.4 °C 10.8 °C 1017.6 hPa Calm     84% 0.0 mm 0 W/m2
01:57 13.4 °C 10.8 °C 1017.6 hPa Calm     84% 0.0 mm 0 W/m2
02:02 13.4 °C 10.8 °C 1017.6 hPa Calm     84% 0.0 mm 0 W/m2
02:07 13.4 °C 10.8 °C 1017.6 hPa Calm     84% 0.0 mm 0 W/m2
02:12 13.4 °C 10.8 °C 1017.6 hPa Calm     84% 0.0 mm 0 W/m2
02:17 13.3 °C 10.7 °C 1017.6 hPa Calm     84% 0.0 mm 0 W/m2
02:22 13.3 °C 10.7 °C 1017.6 hPa Calm     84% 0.0 mm 0 W/m2
02:27 13.2 °C 10.7 °C 1017.3 hPa Calm     85% 0.0 mm 0 W/m2
02:32 13.1 °C 10.6 °C 1017.6 hPa Calm     85% 0.0 mm 0 W/m2
02:37 12.9 °C 10.4 °C 1017.6 hPa Calm     85% 0.0 mm 0 W/m2
02:42 12.8 °C 10.5 °C 1017.3 hPa Calm     86% 0.0 mm 0 W/m2
02:47 12.7 °C 10.4 °C 1017.3 hPa Calm     86% 0.0 mm 0 W/m2
02:52 12.7 °C 10.4 °C 1017.3 hPa Calm     86% 0.0 mm 0 W/m2
02:57 12.6 °C 10.3 °C 1017.3 hPa Calm     86% 0.0 mm 0 W/m2
03:02 12.5 °C 10.4 °C 1017.3 hPa Calm     87% 0.0 mm 0 W/m2
03:07 12.4 °C 10.3 °C 1017.3 hPa Calm     87% 0.0 mm 0 W/m2
03:12 12.4 °C 10.3 °C 1017.3 hPa Calm     87% 0.0 mm 0 W/m2
03:17 12.3 °C 10.4 °C 1017.6 hPa Calm     88% 0.0 mm 0 W/m2
03:22 12.3 °C 10.2 °C 1017.6 hPa Calm     87% 0.0 mm 0 W/m2
03:27 12.3 °C 10.4 °C 1017.6 hPa Calm     88% 0.0 mm 0 W/m2
03:32 12.2 °C 10.3 °C 1017.3 hPa Calm     88% 0.0 mm 0 W/m2
03:37 12.2 °C 10.3 °C 1017.6 hPa Calm     88% 0.0 mm 0 W/m2
03:42 12.1 °C 10.2 °C 1017.6 hPa Calm     88% 0.0 mm 0 W/m2
03:47 12.1 °C 10.3 °C 1017.6 hPa Calm     89% 0.0 mm 0 W/m2
03:52 12 °C 10.2 °C 1017.3 hPa Calm     89% 0.0 mm 0 W/m2
03:57 11.9 °C 10.1 °C 1017.6 hPa Calm     89% 0.0 mm 0 W/m2
04:02 11.9 °C 10.1 °C 1017.6 hPa Calm     89% 0.0 mm 0 W/m2
04:07 11.8 °C 10 °C 1017.6 hPa Calm     89% 0.0 mm 0 W/m2
04:12 11.8 °C 10.2 °C 1017.3 hPa Calm     90% 0.0 mm 0 W/m2
04:17 11.9 °C 10.3 °C 1017.3 hPa Calm     90% 0.0 mm 0 W/m2
04:22 12 °C 10.4 °C 1017.6 hPa Calm     90% 0.0 mm 0 W/m2
04:27 12 °C 10.4 °C 1017.3 hPa Calm     90% 0.0 mm 0 W/m2
04:32 12.1 °C 10.5 °C 1017.6 hPa Calm     90% 0.0 mm 0 W/m2
04:37 12.1 °C 10.7 °C 1017.6 hPa Calm     91% 0.0 mm 0 W/m2
04:42 12.2 °C 10.8 °C 1017.3 hPa Calm     91% 0.0 mm 0 W/m2
04:47 12.1 °C 10.5 °C 1017.3 hPa Calm     90% 0.0 mm 0 W/m2
04:52 12.1 °C 10.5 °C 1017.3 hPa Calm     90% 0.0 mm 0 W/m2
04:57 12.1 °C 10.7 °C 1017.3 hPa Calm     91% 0.0 mm 0 W/m2
05:03 12.1 °C 10.7 °C 1017.3 hPa Calm     91% 0.0 mm 0 W/m2
05:08 12 °C 10.6 °C 1017.3 hPa Calm     91% 0.0 mm 0 W/m2
05:13 11.9 °C 10.5 °C 1017.3 hPa Calm     91% 0.0 mm 0 W/m2
05:18 11.9 °C 10.5 °C 1017.3 hPa Calm     91% 0.0 mm 0 W/m2
05:23 11.8 °C 10.4 °C 1017.3 hPa Calm     91% 0.0 mm 0 W/m2
05:28 11.8 °C 10.4 °C 1017.3 hPa Calm     91% 0.0 mm 0 W/m2
05:33 11.7 °C 10.3 °C 1017.3 hPa Calm     91% 0.0 mm 0 W/m2
05:38 11.7 °C 10.4 °C 1017.6 hPa Calm     92% 0.0 mm 5 W/m2
05:43 11.6 °C 10.3 °C 1017.3 hPa Calm     92% 0.0 mm 7 W/m2
05:48 11.6 °C 10.3 °C 1017.3 hPa Calm     92% 0.0 mm 9 W/m2
05:53 11.6 °C 10.3 °C 1017.3 hPa Calm     92% 0.0 mm 14 W/m2
05:58 11.6 °C 10.3 °C 1017.3 hPa Calm     92% 0.0 mm 16 W/m2
06:03 11.6 °C 10.3 °C 1017.6 hPa Calm     92% 0.0 mm 18 W/m2
06:08 11.6 °C 10.5 °C 1017.6 hPa Calm     93% 0.0 mm 21 W/m2
06:13 11.6 °C 10.5 °C 1017.6 hPa Calm     93% 0.0 mm 23 W/m2
06:18 11.6 °C 10.5 °C 1017.6 hPa Calm     93% 0.0 mm 30 W/m2
06:23 11.6 °C 10.5 °C 1017.6 hPa Calm     93% 0.0 mm 32 W/m2
06:28 11.7 °C 10.6 °C 1017.6 hPa Calm     93% 0.0 mm 33 W/m2
06:33 11.8 °C 10.9 °C 1017.6 hPa Calm     94% 0.0 mm 35 W/m2
06:38 11.8 °C 10.9 °C 1017.6 hPa Calm     94% 0.0 mm 33 W/m2
06:43 11.9 °C 11 °C 1017.6 hPa Calm     94% 0.0 mm 30 W/m2
06:48 12 °C 11.1 °C 1017.6 hPa Calm     94% 0.0 mm 33 W/m2
06:53 12.1 °C 11 °C 1017.6 hPa Calm     93% 0.0 mm 37 W/m2
06:58 12.2 °C 11.1 °C 1017.6 hPa Calm     93% 0.0 mm 35 W/m2
07:03 12.2 °C 11.1 °C 1017.6 hPa Calm     93% 0.0 mm 39 W/m2
07:08 12.3 °C 11.2 °C 1017.6 hPa Calm     93% 0.0 mm 44 W/m2
07:13 12.4 °C 11.3 °C 1017.6 hPa Calm     93% 0.0 mm 49 W/m2
07:18 12.7 °C 11.4 °C 1017.6 hPa Calm     92% 0.0 mm 58 W/m2
07:23 12.8 °C 11.5 °C 1017.6 hPa Calm     92% 0.0 mm 65 W/m2
07:28 13.1 °C 11.7 °C 1017.6 hPa North 3.2 km/h 3.2 km/h 91% 0.0 mm 76 W/m2
07:33 13.3 °C 11.9 °C 1017.6 hPa Calm   1.6 km/h 91% 0.0 mm 86 W/m2
07:38 13.5 °C 11.9 °C 1017.6 hPa NE 3.2 km/h 3.2 km/h 90% 0.0 mm 132 W/m2
07:43 13.7 °C 11.9 °C 1017.6 hPa NE 1.4 km/h 4.8 km/h 89% 0.0 mm 255 W/m2
07:48 13.9 °C 11.8 °C 1017.6 hPa NE 1.4 km/h 4.8 km/h 87% 0.0 mm 260 W/m2
07:53 14.2 °C 12.1 °C 1017.6 hPa NE 1.4 km/h 1.6 km/h 87% 0.0 mm 216 W/m2
07:58 14.6 °C 12.3 °C 1017.6 hPa Calm     86% 0.0 mm 193 W/m2
08:03 14.9 °C 12.6 °C 1017.6 hPa Calm   3.2 km/h 86% 0.0 mm 323 W/m2
08:08 15.3 °C 12.6 °C 1017.6 hPa ENE 1.4 km/h 3.2 km/h 84% 0.0 mm 292 W/m2
08:13 15.6 °C 12.7 °C 1017.6 hPa Calm   3.2 km/h 83% 0.0 mm 253 W/m2
08:18 16.1 °C 13 °C 1017.6 hPa East 1.4 km/h 3.2 km/h 82% 0.0 mm 188 W/m2
08:23 16.3 °C 12.8 °C 1018.0 hPa NNE 1.4 km/h 3.2 km/h 80% 0.0 mm 171 W/m2
08:28 16.6 °C 13.1 °C 1017.6 hPa NNW 1.4 km/h 3.2 km/h 80% 0.0 mm 160 W/m2
08:33 16.7 °C 13 °C 1017.6 hPa Calm   3.2 km/h 79% 0.0 mm 183 W/m2
08:38 16.8 °C 13.1 °C 1017.6 hPa East 1.4 km/h 3.2 km/h 79% 0.0 mm 178 W/m2
08:43 16.8 °C 13.1 °C 1018.0 hPa ESE 1.4 km/h 4.8 km/h 79% 0.0 mm 199 W/m2
08:48 16.9 °C 13.2 °C 1018.0 hPa East 1.4 km/h 8 km/h 79% 0.0 mm 200 W/m2
08:53 17.1 °C 13.6 °C 1018.0 hPa North 1.4 km/h 8 km/h 80% 0.0 mm 209 W/m2
08:58 17.3 °C 13.4 °C 1018.0 hPa NE 3.2 km/h 4.8 km/h 78% 0.0 mm 192 W/m2
09:03 17.4 °C 13.7 °C 1018.0 hPa Calm   8 km/h 79% 0.0 mm 171 W/m2
09:08 17.6 °C 13.7 °C 1018.0 hPa NE 3.2 km/h 6.4 km/h 78% 0.0 mm 171 W/m2
09:13 17.5 °C 13.4 °C 1018.0 hPa ENE 1.4 km/h 4.8 km/h 77% 0.0 mm 163 W/m2
09:18 17.4 °C 13.3 °C 1018.0 hPa NNE 1.4 km/h 4.8 km/h 77% 0.0 mm 315 W/m2
09:23 17.6 °C 13.5 °C 1018.0 hPa ENE 1.4 km/h 4.8 km/h 77% 0.0 mm 504 W/m2
09:28 17.7 °C 13.6 °C 1017.6 hPa ENE 1.4 km/h 8 km/h 77% 0.0 mm 561 W/m2
09:33 17.9 °C 13.6 °C 1017.6 hPa Calm   4.8 km/h 76% 0.0 mm 315 W/m2
09:38 18 °C 13.9 °C 1017.6 hPa ESE 3.2 km/h 8 km/h 77% 0.0 mm 508 W/m2
09:43 18.2 °C 13.7 °C 1017.6 hPa SE 1.4 km/h 3.2 km/h 75% 0.0 mm 295 W/m2
09:48 18.3 °C 13.8 °C 1017.6 hPa East 1.4 km/h 4.8 km/h 75% 0.0 mm 408 W/m2
09:53 18.4 °C 13.9 °C 1017.6 hPa East 4.7 km/h 6.4 km/h 75% 0.0 mm 304 W/m2
09:58 18.6 °C 13.9 °C 1017.6 hPa Calm     74% 0.0 mm 295 W/m2
10:03 18.7 °C 14 °C 1017.6 hPa East 1.4 km/h 6.4 km/h 74% 0.0 mm 327 W/m2
10:08 18.7 °C 13.8 °C 1017.6 hPa Calm   1.6 km/h 73% 0.0 mm 462 W/m2
10:13 18.9 °C 14 °C 1017.6 hPa ENE 1.4 km/h 4.8 km/h 73% 0.0 mm 234 W/m2
10:18 19.1 °C 14.1 °C 1017.6 hPa East 1.4 km/h 1.6 km/h 73% 0.0 mm 339 W/m2
10:23 19.3 °C 14.1 °C 1017.6 hPa ENE 6.4 km/h 6.4 km/h 72% 0.0 mm 668 W/m2
10:28 19.6 °C 14.2 °C 1017.6 hPa East 4.7 km/h 4.8 km/h 71% 0.0 mm 679 W/m2
10:33 19.8 °C 14.4 °C 1017.6 hPa NE 4.7 km/h 8 km/h 71% 0.0 mm 700 W/m2
10:38 20.1 °C 14.5 °C 1017.6 hPa ENE 1.4 km/h 9.7 km/h 70% 0.0 mm 642 W/m2
10:43 20.4 °C 15 °C 1017.6 hPa ENE 1.4 km/h 6.4 km/h 71% 0.0 mm 541 W/m2
10:48 20.7 °C 15 °C 1017.6 hPa ENE 6.4 km/h 9.7 km/h 70% 0.0 mm 701 W/m2
10:53 21.1 °C 15 °C 1017.6 hPa East 4.7 km/h 4.8 km/h 68% 0.0 mm 712 W/m2
10:58 21.3 °C 14.7 °C 1017.6 hPa ESE 8 km/h 8 km/h 66% 0.0 mm 722 W/m2
11:03 21.3 °C 14.7 °C 1017.6 hPa NE 1.4 km/h 6.4 km/h 66% 0.0 mm 733 W/m2
11:08 21.6 °C 14.5 °C 1017.6 hPa ESE 1.4 km/h 6.4 km/h 64% 0.0 mm 745 W/m2
11:13 21.7 °C 14.8 °C 1017.3 hPa ENE 3.2 km/h 4.8 km/h 65% 0.0 mm 740 W/m2
11:18 21.9 °C 14.5 °C 1017.3 hPa ESE 3.2 km/h 9.7 km/h 63% 0.0 mm 772 W/m2
11:23 22.1 °C 14 °C 1017.3 hPa NNE 3.2 km/h 12.9 km/h 60% 0.0 mm 793 W/m2
11:28 22.1 °C 14.2 °C 1017.3 hPa East 1.4 km/h 3.2 km/h 61% 0.0 mm 802 W/m2
11:33 22.3 °C 14.2 °C 1017.3 hPa WSW 1.4 km/h 12.9 km/h 60% 0.0 mm 831 W/m2
11:38 22.4 °C 14.3 °C 1017.3 hPa ENE 3.2 km/h 4.8 km/h 60% 0.0 mm 872 W/m2
11:43 22.6 °C 13.6 °C 1017.3 hPa NNE 3.2 km/h 3.2 km/h 57% 0.0 mm 773 W/m2
11:48 22.9 °C 13.7 °C 1017.3 hPa East 3.2 km/h 6.4 km/h 56% 0.0 mm 439 W/m2
11:53 23.3 °C 13.2 °C 1017.3 hPa ESE 1.4 km/h 9.7 km/h 53% 0.0 mm 696 W/m2
11:58 23.2 °C 12.8 °C 1017.3 hPa ENE 3.2 km/h 4.8 km/h 52% 0.0 mm 411 W/m2
12:03 22.8 °C 13.6 °C 1017.3 hPa West 3.2 km/h 3.2 km/h 56% 0.0 mm 722 W/m2
12:08 23 °C 13.2 °C 1016.9 hPa NE 3.2 km/h 4.8 km/h 54% 0.0 mm 969 W/m2
12:13 23.3 °C 12.9 °C 1016.9 hPa SE 4.7 km/h 11.3 km/h 52% 0.0 mm 914 W/m2
12:18 23.4 °C 13 °C 1016.9 hPa NE 3.2 km/h 6.4 km/h 52% 0.0 mm 628 W/m2
12:23 23.5 °C 13.1 °C 1016.9 hPa ENE 3.2 km/h 4.8 km/h 52% 0.0 mm 605 W/m2
12:28 23.4 °C 13 °C 1016.9 hPa NE 1.4 km/h 4.8 km/h 52% 0.0 mm 204 W/m2
12:33 23.4 °C 13.8 °C 1016.9 hPa East 3.2 km/h 6.4 km/h 55% 0.0 mm 664 W/m2
12:38 23.4 °C 14.1 °C 1016.9 hPa ENE 6.4 km/h 6.4 km/h 56% 0.0 mm 947 W/m2
12:43 23.4 °C 13.3 °C 1016.9 hPa North 1.4 km/h 6.4 km/h 53% 0.0 mm 216 W/m2
12:48 23.2 °C 13.7 °C 1016.9 hPa NNW 1.4 km/h 3.2 km/h 55% 0.0 mm 1004 W/m2
12:53 23.1 °C 13.8 °C 1016.9 hPa East 6.4 km/h 9.7 km/h 56% 0.0 mm 1032 W/m2
12:58 23.3 °C 13.2 °C 1016.9 hPa East 4.7 km/h 11.3 km/h 53% 0.0 mm 965 W/m2
13:03 23.3 °C 12.9 °C 1016.9 hPa East 3.2 km/h 6.4 km/h 52% 0.0 mm 251 W/m2
13:09 23.2 °C 12.5 °C 1016.9 hPa East 1.4 km/h 6.4 km/h 51% 0.0 mm 461 W/m2
13:14 23.2 °C 12.2 °C 1016.9 hPa NW 3.2 km/h 6.4 km/h 50% 0.0 mm 455 W/m2
13:19 23.3 °C 13.5 °C 1016.9 hPa ESE 4.7 km/h 4.8 km/h 54% 0.0 mm 538 W/m2
13:24 23.5 °C 13.4 °C 1016.9 hPa East 1.4 km/h 4.8 km/h 53% 0.0 mm 376 W/m2
13:29 23.7 °C 13.6 °C 1016.9 hPa Calm   9.7 km/h 53% 0.0 mm 1060 W/m2
13:34 23.8 °C 13.1 °C 1016.9 hPa ENE 4.7 km/h 9.7 km/h 51% 0.0 mm 1055 W/m2
13:39 23.9 °C 14 °C 1016.9 hPa SE 6.4 km/h 6.4 km/h 54% 0.0 mm 1088 W/m2
13:44 24.2 °C 14 °C 1016.9 hPa Calm   1.6 km/h 53% 0.0 mm 1107 W/m2
Juneau County Weather
Compliments of Weather Underground - 4 mb